Time;durP1;ratioP1;P1;durP2;ratioP2;P2;SDS_P1;SDS_P2;PMS_P1;PMS_P2;Temp;Humidity;BMP_temperature;BMP_pressure;BME280_temperature;BME280_humidity;BME280_pressure;Samples;Min_cycle;Max_cycle;Signal;HPM_P1;HPM_P2
2023/03/12 00:02:28;;;;;;;10.07;5.22;;;;;;;1.42;100.00;101181.16;4070163;23;20987;-92
2023/03/12 00:04:56;;;;;;;7.32;5.07;;;;;;;1.38;100.00;101178.50;5006367;23;20102;-85
2023/03/12 00:07:21;;;;;;;9.60;4.88;;;;;;;1.43;100.00;101171.81;4988947;23;20030;-86
2023/03/12 00:09:47;;;;;;;15.27;5.15;;;;;;;1.41;100.00;101165.81;4925464;29;20038;-86
2023/03/12 00:12:12;;;;;;;10.27;5.13;;;;;;;1.36;100.00;101157.22;4964319;23;20059;-93
2023/03/12 00:14:38;;;;;;;13.98;5.35;;;;;;;1.45;100.00;101173.53;5027268;23;20055;-86
2023/03/12 00:17:03;;;;;;;9.32;5.43;;;;;;;1.43;100.00;101159.03;4920073;29;20028;-86
2023/03/12 00:19:28;;;;;;;9.75;5.65;;;;;;;1.43;100.00;101167.53;5047748;23;20105;-86
2023/03/12 00:27:27;;;;;;;12.68;5.63;;;;;;;1.38;100.00;101146.16;4803134;26;20060;-93
2023/03/12 00:32:28;;;;;;;10.70;5.80;;;;;;;1.46;100.00;101147.19;4508917;26;20063;-93
2023/03/12 00:34:55;;;;;;;12.70;5.78;;;;;;;1.45;100.00;101131.81;4967886;23;20406;-86
2023/03/12 00:37:21;;;;;;;10.45;5.40;;;;;;;1.36;100.00;101124.00;4963045;23;20048;-93
2023/03/12 00:39:47;;;;;;;12.23;5.32;;;;;;;1.46;100.00;101134.41;4578649;23;20352;-87
2023/03/12 00:42:12;;;;;;;10.40;5.85;;;;;;;1.36;100.00;101113.81;4836218;23;20119;-92
2023/03/12 00:47:13;;;;;;;10.27;5.90;;;;;;;1.38;100.00;101115.53;4949931;23;20058;-93
2023/03/12 00:54:42;;;;;;;12.13;5.68;;;;;;;1.40;100.00;101113.00;4191777;23;20048;-93
2023/03/12 00:57:07;;;;;;;11.05;5.82;;;;;;;1.48;100.00;101122.53;4956381;23;20068;-87
2023/03/12 00:59:32;;;;;;;11.68;6.03;;;;;;;1.51;100.00;101114.91;4978143;23;20146;-87
2023/03/12 01:01:58;;;;;;;12.98;6.25;;;;;;;1.48;100.00;101107.22;4927616;29;20030;-87
2023/03/12 01:04:23;;;;;;;8.00;5.60;;;;;;;1.53;100.00;101115.81;5012010;23;20041;-87
2023/03/12 01:06:49;;;;;;;12.43;5.72;;;;;;;1.42;100.00;101094.34;5004312;23;20128;-93
2023/03/12 01:09:15;;;;;;;12.05;5.97;;;;;;;1.46;100.00;101100.34;4963624;28;20710;-93
2023/03/12 01:11:49;;;;;;;11.25;6.20;;;;;;;1.53;100.00;101100.47;4999667;23;20122;-92
2023/03/12 01:14:15;;;;;;;11.68;5.40;;;;;;;1.55;100.00;101103.06;4957302;28;20177;-92
2023/03/12 01:16:40;;;;;;;13.27;5.63;;;;;;;1.58;100.00;101093.75;4949977;23;20051;-87
2023/03/12 01:19:05;;;;;;;10.77;5.80;;;;;;;1.58;100.00;101101.41;4924551;29;20402;-87
2023/03/12 01:21:31;;;;;;;11.90;5.75;;;;;;;1.54;100.00;101086.88;4943642;23;20089;-93
2023/03/12 01:23:57;;;;;;;13.15;5.65;;;;;;;1.60;100.00;101091.22;4962881;23;20059;-87
2023/03/12 01:26:23;;;;;;;11.20;5.80;;;;;;;1.51;100.00;101089.34;4955840;23;20147;-93
2023/03/12 01:33:21;;;;;;;;;;;;;;;;;;;;;
2023/03/12 01:43:51;;;;;;;10.43;5.75;;;;;;;1.67;100.00;101093.03;4819264;29;20050;-95
2023/03/12 01:46:45;;;;;;;;;;;;;;;;;;;;;
2023/03/12 02:00:41;;;;;;;12.98;5.63;;;;;;;1.52;100.00;101045.09;4806975;29;20035;-96
2023/03/12 02:04:19;;;;;;;;;;;;;;;;;;;;;
2023/03/12 02:07:21;;;;;;;;;;;;;;;;;;;;;
2023/03/12 02:14:15;;;;;;;11.63;5.75;;;;;;;1.52;100.00;101054.47;4761438;30;20325;-96
2023/03/12 02:17:38;;;;;;;10.07;4.95;;;;;;;1.41;100.00;101028.75;4761440;30;20042;-96
2023/03/12 02:20:22;;;;;;;;;;;;;;;;;;;;;
2023/03/12 02:27:00;;;;;;;10.30;4.90;;;;;;;1.49;100.00;101022.09;4744324;30;20043;-96
2023/03/12 02:30:00;;;;;;;11.07;5.68;;;;;;;1.44;100.00;101018.59;4760443;29;20055;-96
2023/03/12 02:33:32;;;;;;;8.63;4.90;;;;;;;1.57;100.00;101020.50;4773391;29;20040;-96
2023/03/12 02:40:36;;;;;;;;;;;;;;;;;;;;;
2023/03/12 02:47:30;;;;;;;;;;;;;;;;;;;;;
2023/03/12 02:51:02;;;;;;;;;;;;;;;;;;;;;
2023/03/12 02:53:53;;;;;;;11.45;5.25;;;;;;;1.50;100.00;100998.25;4882397;29;20033;-96
2023/03/12 02:57:19;;;;;;;9.88;4.95;;;;;;;1.57;100.00;101001.75;4851494;29;20140;-96
2023/03/12 03:03:37;;;;;;;11.77;5.55;;;;;;;1.57;100.00;100988.97;4814197;29;20031;-95
2023/03/12 03:07:01;;;;;;;;;;;;;;;;;;;;;
2023/03/12 03:14:45;;;;;;;10.65;5.72;;;;;;;1.69;100.00;100994.28;2974912;23;20051;-87
2023/03/12 03:22:22;;;;;;;11.00;5.65;;;;;;;1.74;100.00;100999.47;4944997;28;20512;-85
2023/03/12 03:24:48;;;;;;;11.32;5.95;;;;;;;1.73;100.00;101008.81;4219748;23;20060;-86
2023/03/12 03:29:46;;;;;;;12.32;5.88;;;;;;;1.68;100.00;100987.47;4994994;23;20059;-94
2023/03/12 03:32:12;;;;;;;11.82;5.85;;;;;;;1.69;100.00;100986.63;4997119;23;20059;-93
2023/03/12 03:34:38;;;;;;;10.13;6.22;;;;;;;1.80;100.00;100997.84;4941811;23;20058;-87
2023/03/12 03:37:03;;;;;;;15.38;6.38;;;;;;;1.83;100.00;100994.50;4940015;29;20028;-87
2023/03/12 03:45:08;;;;;;;11.77;6.22;;;;;;;1.87;100.00;100996.25;4511871;23;20054;-87
2023/03/12 03:52:38;;;;;;;12.13;7.13;;;;;;;1.90;100.00;100984.38;4982601;23;20063;-87
2023/03/12 03:55:04;;;;;;;13.77;6.93;;;;;;;1.90;100.00;100978.41;4971423;23;20059;-87
2023/03/12 03:57:30;;;;;;;15.48;7.30;;;;;;;1.84;100.00;100974.03;4949736;23;20094;-93
2023/03/12 04:02:26;;;;;;;11.55;6.80;;;;;;;1.91;100.00;100962.25;4957702;28;20051;-86
2023/03/12 04:05:44;;;;;;;10.55;6.45;;;;;;;1.88;100.00;100957.94;4988703;23;20487;-96
2023/03/12 04:12:27;;;;;;;;;;;;;;;;;;;;;
2023/03/12 04:19:21;;;;;;;14.10;7.07;;;;;;;1.90;100.00;100927.28;4902344;29;20040;-95
2023/03/12 04:22:18;;;;;;;12.75;6.25;;;;;;;1.89;100.00;100928.97;4915652;29;20082;-96
2023/03/12 04:24:59;;;;;;;11.15;6.28;;;;;;;1.86;100.00;100902.50;4954498;28;20047;-95
2023/03/12 04:31:32;;;;;;;13.75;6.32;;;;;;;1.90;100.00;100894.94;4937664;29;20224;-95
2023/03/12 04:38:03;;;;;;;;;;;;;;;;;;;;;
2023/03/12 04:40:49;;;;;;;12.38;6.00;;;;;;;2.00;100.00;100883.09;4780124;29;20039;-96
2023/03/12 04:46:37;;;;;;;12.93;6.13;;;;;;;1.96;100.00;100874.56;4859846;29;20052;-95
2023/03/12 04:49:44;;;;;;;9.13;6.03;;;;;;;2.04;100.00;100879.75;4885678;29;20036;-96
2023/03/12 04:52:51;;;;;;;13.98;6.10;;;;;;;1.97;100.00;100862.63;4871250;29;20111;-96
2023/03/12 04:55:38;;;;;;;10.98;5.78;;;;;;;1.95;100.00;100869.41;4886022;29;20048;-95
2023/03/12 05:02:03;;;;;;;;;;;;;;;;;;;;;
2023/03/12 05:08:28;;;;;;;;;;;;;;;;;;;;;
2023/03/12 05:11:22;;;;;;;11.43;5.00;;;;;;;2.15;100.00;100859.41;4811927;29;20154;-96
2023/03/12 05:13:50;;;;;;;10.10;4.93;;;;;;;2.21;100.00;100870.56;4837835;29;20039;-95
2023/03/12 05:16:45;;;;;;;10.80;5.00;;;;;;;2.12;100.00;100828.69;4862357;29;20045;-96
2023/03/12 05:20:09;;;;;;;;;;;;;;;;;;;;;
2023/03/12 05:23:00;;;;;;;12.20;5.20;;;;;;;2.21;100.00;100826.22;4885895;29;20433;-95
2023/03/12 05:25:51;;;;;;;12.20;4.90;;;;;;;2.25;100.00;100820.31;4866541;29;20034;-96
2023/03/12 05:28:36;;;;;;;;;;;;;;;;;;;;;
2023/03/12 05:31:48;;;;;;;;;;;;;;;;;;;;;
2023/03/12 05:34:21;;;;;;;10.00;5.38;;;;;;;2.24;100.00;100808.38;4913849;29;20039;-95
2023/03/12 05:37:27;;;;;;;;;;;;;;;;;;;;;
2023/03/12 05:40:22;;;;;;;14.70;5.60;;;;;;;2.41;100.00;100832.38;4912219;29;20039;-95
2023/03/12 05:43:27;;;;;;;;;;;;;;;;;;;;;
2023/03/12 05:46:21;;;;;;;;;;;;;;;;;;;;;
2023/03/12 05:50:12;;;;;;;11.43;5.00;;;;;;;2.33;100.00;100819.53;4923370;29;20043;-95
2023/03/12 05:53:19;;;;;;;;;;;;;;;;;;;;;
2023/03/12 05:59:35;;;;;;;10.68;4.93;;;;;;;2.35;100.00;100816.97;4869801;29;20759;-96
2023/03/12 06:05:59;;;;;;;;;;;;;;;;;;;;;
2023/03/12 06:08:46;;;;;;;;;;;;;;;;;;;;;
2023/03/12 06:11:31;;;;;;;;;;;;;;;;;;;;;
2023/03/12 06:14:19;;;;;;;12.15;5.35;;;;;;;2.44;100.00;100811.97;4941215;29;20415;-95
2023/03/12 06:17:21;;;;;;;;;;;;;;;;;;;;;
2023/03/12 06:20:44;;;;;;;9.98;5.05;;;;;;;2.46;100.00;100814.53;4942188;29;20045;-96
2023/03/12 06:23:33;;;;;;;14.27;5.20;;;;;;;2.50;100.00;100822.25;4945659;29;20035;-94
2023/03/12 06:29:13;;;;;;;12.00;5.68;;;;;;;2.59;100.00;100840.25;4923826;29;20043;-95
2023/03/12 06:31:54;;;;;;;;;;;;;;;;;;;;;
2023/03/12 06:35:40;;;;;;;;;;;;;;;;;;;;;
2023/03/12 06:42:26;;;;;;;;;;;;;;;;;;;;;
2023/03/12 06:45:43;;;;;;;13.05;5.78;;;;;;;2.54;100.00;100800.09;4878242;29;20045;-95
2023/03/12 06:48:40;;;;;;;11.60;5.45;;;;;;;2.50;100.00;100785.56;4863854;29;20044;-94
2023/03/12 06:51:22;;;;;;;11.95;5.60;;;;;;;2.61;100.00;100812.94;4900113;29;20054;-95
2023/03/12 06:54:13;;;;;;;11.80;5.97;;;;;;;2.47;100.00;100788.94;4901332;29;20115;-94
2023/03/12 06:56:48;;;;;;;11.18;5.30;;;;;;;2.51;100.00;100787.28;4913127;29;20545;-95
2023/03/12 06:59:28;;;;;;;14.57;6.03;;;;;;;2.59;100.00;100799.31;4900199;29;20382;-95
2023/03/12 07:02:08;;;;;;;11.40;5.82;;;;;;;2.52;100.00;100779.63;4907964;29;20028;-95
2023/03/12 07:05:25;;;;;;;16.42;6.35;;;;;;;2.62;100.00;100775.44;4914723;29;20047;-95
2023/03/12 07:08:08;;;;;;;15.30;5.68;;;;;;;2.70;100.00;100773.78;4889125;29;20048;-95
2023/03/12 07:10:45;;;;;;;13.43;6.07;;;;;;;2.73;100.00;100776.34;4907346;29;20077;-95
2023/03/12 07:13:24;;;;;;;14.23;6.13;;;;;;;2.81;100.00;100779.81;4928776;29;20256;-94
2023/03/12 07:16:22;;;;;;;;;;;;;;;;;;;;;
2023/03/12 07:19:20;;;;;;;12.65;6.18;;;;;;;2.88;100.00;100773.91;4941153;29;20034;-96
2023/03/12 07:22:14;;;;;;;12.10;6.40;;;;;;;2.84;100.00;100772.19;4953366;28;20080;-95
2023/03/12 07:25:11;;;;;;;14.65;6.35;;;;;;;2.88;100.00;100770.47;4953447;28;20035;-95
2023/03/12 07:31:04;;;;;;;;;;;;;;;;;;;;;
2023/03/12 07:37:14;;;;;;;12.57;6.70;;;;;;;3.01;100.00;100793.59;4882554;29;20032;-96
2023/03/12 07:40:06;;;;;;;;;;;;;;;;;;;;;
2023/03/12 07:42:42;;;;;;;15.60;7.43;;;;;;;3.03;100.00;100770.56;4932511;29;20034;-95
2023/03/12 07:45:18;;;;;;;15.90;6.80;;;;;;;2.95;100.00;100767.97;4939504;29;20063;-95
2023/03/12 07:51:05;;;;;;;15.15;7.10;;;;;;;2.96;100.00;100764.56;4933991;28;20520;-95
2023/03/12 07:53:54;;;;;;;15.70;7.55;;;;;;;3.05;100.00;100777.44;4955037;28;21471;-95
2023/03/12 07:56:55;;;;;;;18.83;7.38;;;;;;;3.05;100.00;100774.00;4953785;28;20027;-95
2023/03/12 07:59:25;;;;;;;12.68;6.88;;;;;;;3.01;100.00;100768.00;4943417;29;20457;-96
2023/03/12 08:01:54;;;;;;;20.42;8.10;;;;;;;3.06;100.00;100771.47;4937193;28;20035;-95
2023/03/12 08:04:50;;;;;;;13.00;6.95;;;;;;;3.11;100.00;100784.28;4952606;28;20046;-95
2023/03/12 08:07:30;;;;;;;;;;;;;;;;;;;;;
2023/03/12 08:10:35;;;;;;;14.40;7.30;;;;;;;3.26;100.00;100792.06;4939611;29;20059;-95
2023/03/12 08:13:05;;;;;;;13.10;6.78;;;;;;;3.20;100.00;100773.25;4938936;29;20042;-94
2023/03/12 08:15:39;;;;;;;14.35;7.72;;;;;;;3.32;100.00;100780.97;4954107;28;20658;-95
2023/03/12 08:18:12;;;;;;;13.07;7.55;;;;;;;3.32;100.00;100771.59;4953145;28;20028;-95
2023/03/12 08:21:08;;;;;;;17.25;7.50;;;;;;;3.36;100.00;100769.88;4940458;29;20035;-96
2023/03/12 08:23:34;;;;;;;13.75;7.28;;;;;;;3.46;100.00;100782.75;4939715;28;20038;-96
2023/03/12 08:26:03;;;;;;;15.27;8.35;;;;;;;3.49;100.00;100776.78;4952695;28;20034;-94
2023/03/12 08:28:31;;;;;;;16.48;7.80;;;;;;;3.48;100.00;100772.53;4951904;28;20114;-96
2023/03/12 08:31:41;;;;;;;;;;;;;;;;;;;;;
2023/03/12 08:34:18;;;;;;;14.77;7.07;;;;;;;3.74;100.00;100798.22;4935320;28;21550;-96
2023/03/12 08:39:56;;;;;;;17.55;8.32;;;;;;;3.73;100.00;100774.31;4945432;28;20567;-95
2023/03/12 08:43:07;;;;;;;15.02;9.05;;;;;;;3.82;100.00;100789.69;4939939;29;20460;-96
2023/03/12 08:49:26;;;;;;;17.63;9.77;;;;;;;3.89;100.00;100773.47;4916874;29;20508;-95
2023/03/12 08:52:28;;;;;;;18.27;9.52;;;;;;;3.95;100.00;100786.34;4924292;29;20595;-96
2023/03/12 08:55:00;;;;;;;19.10;9.98;;;;;;;4.11;100.00;100807.72;4903879;29;20039;-95
2023/03/12 09:10:26;;;;;;;19.05;9.40;;;;;;;4.40;100.00;100797.50;4711979;26;20039;-93
2023/03/12 09:12:52;;;;;;;18.42;9.85;;;;;;;4.49;100.00;100800.09;4976702;23;20070;-92
2023/03/12 09:15:17;;;;;;;18.60;10.32;;;;;;;4.56;100.00;100813.78;4939155;28;20032;-92
2023/03/12 09:23:16;;;;;;;22.90;10.77;;;;;;;4.90;100.00;100806.91;3106917;23;20079;-91
2023/03/12 09:26:12;;;;;;;23.35;10.98;;;;;;;5.05;100.00;100804.31;4781754;23;20253;-93
2023/03/12 09:28:38;;;;;;;22.25;10.93;;;;;;;5.16;100.00;100777.75;5053015;23;20043;-84
2023/03/12 09:36:49;;;;;;;25.00;11.77;;;;;;;5.53;100.00;100775.88;4905731;23;20672;-92
2023/03/12 09:41:57;;;;;;;26.60;12.77;;;;;;;5.91;100.00;100805.75;2918489;23;20101;-93
2023/03/12 09:44:40;;;;;;;30.27;13.25;;;;;;;6.11;100.00;100805.63;4944021;28;20032;-92
2023/03/12 09:57:37;;;;;;;36.25;15.80;;;;;;;6.98;100.00;100811.78;5016604;23;20059;-92
2023/03/12 10:03:09;;;;;;;35.10;16.48;;;;;;;7.42;100.00;100819.09;3497459;23;20055;-92
2023/03/12 10:08:28;;;;;;;32.63;15.77;;;;;;;7.49;100.00;100815.56;4401011;23;20386;-86
2023/03/12 10:14:34;;;;;;;34.30;15.40;;;;;;;7.70;100.00;100823.91;4992975;23;20091;-91
2023/03/12 10:19:57;;;;;;;33.90;15.25;;;;;;;7.83;100.00;100826.31;4141735;26;20094;-90
2023/03/12 10:30:22;;;;;;;31.00;15.05;;;;;;;8.27;100.00;100793.84;3576072;23;20486;-90
2023/03/12 10:32:56;;;;;;;35.05;17.33;;;;;;;8.29;100.00;100790.38;5087525;23;20513;-90
2023/03/12 10:35:24;;;;;;;33.67;15.82;;;;;;;8.46;100.00;100810.81;4997742;23;20078;-92
2023/03/12 10:37:52;;;;;;;35.88;15.60;;;;;;;8.62;100.00;100817.44;4971284;23;20051;-89
2023/03/12 10:43:23;;;;;;;33.17;15.57;;;;;;;8.79;100.00;100812.00;5001167;23;20054;-92
2023/03/12 10:48:26;;;;;;;31.90;14.70;;;;;;;9.06;100.00;100811.53;3524793;23;20026;-91
2023/03/12 10:51:14;;;;;;;30.08;14.45;;;;;;;9.24;100.00;100804.31;4926780;29;20502;-91
2023/03/12 10:56:19;;;;;;;34.92;14.65;;;;;;;9.33;100.00;100794.66;4939430;23;20384;-89
2023/03/12 10:58:47;;;;;;;34.28;15.23;;;;;;;9.49;100.00;100800.34;5117575;23;20073;-91
2023/03/12 11:01:25;;;;;;;33.70;13.75;;;;;;;9.34;100.00;100795.50;4946109;28;20030;-91
2023/03/12 11:03:52;;;;;;;30.63;13.75;;;;;;;9.36;100.00;100817.84;4998132;23;20063;-92
2023/03/12 11:11:34;;;;;;;35.83;14.75;;;;;;;9.23;100.00;100816.38;5057819;23;20066;-86
2023/03/12 11:16:48;;;;;;;31.55;13.70;;;;;;;9.29;100.00;100821.44;4991300;23;20082;31
2023/03/12 11:19:25;;;;;;;33.78;13.82;;;;;;;9.18;100.00;100812.19;4627355;23;20050;-91
2023/03/12 11:24:25;;;;;;;31.60;14.05;;;;;;;9.03;100.00;100826.22;5049574;23;20192;-84
2023/03/12 11:35:27;;;;;;;36.78;14.07;;;;;;;9.54;100.00;100823.56;4443910;23;20218;-92
2023/03/12 11:37:59;;;;;;;30.40;14.05;;;;;;;9.64;100.00;100827.66;4940614;23;20157;-86
2023/03/12 11:40:36;;;;;;;32.03;12.27;;;;;;;9.69;100.00;100838.78;5223476;23;20129;-91
2023/03/12 11:51:31;;;;;;;38.78;13.38;;;;;;;9.80;100.00;100827.34;5102605;23;20044;-89
2023/03/12 11:56:39;;;;;;;37.97;13.13;;;;;;;9.71;100.00;100822.34;4687019;23;20066;-91
2023/03/12 12:02:39;;;;;;;36.97;12.52;;;;;;;10.22;100.00;100824.72;5077073;23;20063;-90
2023/03/12 12:05:19;;;;;;;37.85;12.48;;;;;;;10.56;100.00;100822.22;4928382;29;20040;-91
2023/03/12 12:08:17;;;;;;;35.72;12.07;;;;;;;10.80;100.00;100807.78;4987549;23;20066;-91
2023/03/12 12:10:43;;;;;;;43.75;12.20;;;;;;;11.14;100.00;100812.94;5001556;23;20055;-91
2023/03/12 12:13:30;;;;;;;31.80;10.60;;;;;;;11.52;100.00;100794.59;4983916;23;20066;-91
2023/03/12 12:16:01;;;;;;;33.10;10.13;;;;;;;11.89;100.00;100789.22;5059676;23;20078;-91
2023/03/12 12:23:43;;;;;;;32.35;8.85;;;;;;;12.46;100.00;100791.75;4968766;23;20075;-91
2023/03/12 12:26:15;;;;;;;27.95;7.68;;;;;;;12.41;100.00;100785.88;4986313;23;20051;-90
2023/03/12 12:34:34;;;;;;;25.70;6.60;;;;;;;12.32;100.00;100775.75;4876350;23;20254;-90
2023/03/12 12:37:23;;;;;;;24.58;5.70;;;;;;;12.11;100.00;100758.22;4976430;23;20616;-91
2023/03/12 12:40:18;;;;;;;28.73;5.88;;;;;;;11.96;100.00;100751.75;5073671;23;20065;-92
2023/03/12 12:42:55;;;;;;;27.30;6.80;;;;;;;11.97;100.00;100747.41;4990439;23;20040;-86
2023/03/12 12:45:25;;;;;;;27.25;6.88;;;;;;;11.91;100.00;100745.88;4996189;23;20058;-90
2023/03/12 12:48:04;;;;;;;30.02;6.90;;;;;;;11.75;100.00;100753.25;4943182;28;21194;-91
2023/03/12 12:50:35;;;;;;;25.27;7.43;;;;;;;11.59;100.00;100744.22;5007818;23;20395;-90
2023/03/12 12:53:12;;;;;;;30.02;7.70;;;;;;;11.40;100.00;100737.81;4991533;23;20054;-92
2023/03/12 12:55:53;;;;;;;31.58;7.65;;;;;;;11.27;100.00;100760.69;4616980;23;20472;-90
2023/03/12 13:00:52;;;;;;;25.23;6.55;;;;;;;10.93;100.00;100746.94;4454524;23;20054;-90
2023/03/12 13:03:22;;;;;;;23.15;6.63;;;;;;;10.79;100.00;100742.09;4926873;29;20036;-90
2023/03/12 13:06:02;;;;;;;24.20;6.78;;;;;;;10.63;100.00;100722.69;4918037;23;20066;-91
2023/03/12 13:11:15;;;;;;;25.00;7.43;;;;;;;10.47;100.00;100742.94;4947472;23;20055;-91
2023/03/12 13:16:34;;;;;;;28.83;6.75;;;;;;;10.25;100.00;100749.53;4287344;23;20047;-91
2023/03/12 13:19:15;;;;;;;24.95;7.25;;;;;;;10.29;100.00;100741.66;4951793;23;20063;-90
2023/03/12 13:22:01;;;;;;;24.58;6.65;;;;;;;10.28;100.00;100721.81;4998185;23;20067;-91
2023/03/12 13:27:04;;;;;;;26.23;7.47;;;;;;;10.60;100.00;100726.19;4571461;23;20666;-90
2023/03/12 13:29:35;;;;;;;23.80;5.72;;;;;;;10.78;100.00;100726.63;4956164;23;20028;-91
2023/03/12 13:32:01;;;;;;;24.88;5.68;;;;;;;10.79;100.00;100731.75;4910633;23;20063;-90
2023/03/12 13:37:01;;;;;;;22.95;3.90;;;;;;;10.48;100.00;100710.97;5027960;23;20051;-91
2023/03/12 13:41:58;;;;;;;24.88;3.67;;;;;;;10.46;99.67;100710.13;3216294;23;20052;-92
2023/03/12 13:44:26;;;;;;;25.95;4.20;;;;;;;10.67;100.00;100735.50;4971539;23;20047;-90
2023/03/12 13:47:21;;;;;;;15.93;3.40;;;;;;;10.73;100.00;100723.28;4948974;23;20433;-91
2023/03/12 13:50:04;;;;;;;26.38;3.60;;;;;;;10.81;97.88;100710.97;4928411;29;20028;-93
2023/03/12 13:52:31;;;;;;;26.23;3.38;;;;;;;11.03;99.38;100725.06;5010869;23;20577;-91
2023/03/12 13:55:16;;;;;;;22.75;3.55;;;;;;;11.14;97.61;100706.59;5114659;23;20052;-94
2023/03/12 13:57:42;;;;;;;;;;;;;;;11.37;99.31;100725.81;4942116;29;20136;-93
2023/03/12 14:00:18;;;;;;;19.60;3.33;;;;;;;11.44;95.22;100722.16;4986462;23;19938;-85
2023/03/12 14:02:53;;;;;;;26.38;3.85;;;;;;;11.53;94.15;100715.84;4621067;23;20245;-95
2023/03/12 14:05:19;;;;;;;21.02;3.45;;;;;;;11.60;94.85;100719.94;4971015;23;20040;-94
2023/03/12 14:07:50;;;;;;;19.45;3.40;;;;;;;11.61;94.79;100718.19;4930230;29;20071;-94
2023/03/12 14:10:31;;;;;;;16.75;3.33;;;;;;;11.60;94.32;100743.28;5019639;23;20061;-93
2023/03/12 14:13:23;;;;;;;24.75;4.00;;;;;;;11.56;94.98;100749.47;4963262;23;20055;-94
2023/03/12 14:16:05;;;;;;;26.55;4.15;;;;;;;11.55;95.08;100742.59;4969915;28;20118;-95
2023/03/12 14:18:34;;;;;;;25.63;3.60;;;;;;;11.43;96.36;100736.00;4942172;29;20551;-96
2023/03/12 14:21:15;;;;;;;24.02;4.15;;;;;;;11.41;96.25;100721.38;4953461;29;20035;-96
2023/03/12 14:23:58;;;;;;;21.70;3.95;;;;;;;11.48;95.98;100735.88;4942188;29;20048;-95
2023/03/12 14:26:51;;;;;;;23.70;4.30;;;;;;;11.54;94.97;100742.63;4949247;28;20031;-96
2023/03/12 14:29:30;;;;;;;25.95;4.00;;;;;;;11.55;93.50;100734.78;4929864;29;20523;-96
2023/03/12 14:32:06;;;;;;;22.33;4.38;;;;;;;11.59;91.94;100736.44;4968547;28;20106;-95
2023/03/12 14:34:45;;;;;;;28.55;4.50;;;;;;;11.74;92.88;100750.69;4957371;28;20070;-96
2023/03/12 14:38:07;;;;;;;22.52;4.15;;;;;;;11.92;93.73;100762.31;4950049;28;20043;-96
2023/03/12 14:42:04;;;;;;;20.17;4.22;;;;;;;11.99;93.48;100763.81;4956154;29;20027;-96
2023/03/12 14:44:35;;;;;;;24.52;4.15;;;;;;;11.77;91.64;100743.69;4943712;28;20045;-96
2023/03/12 14:47:10;;;;;;;25.73;4.45;;;;;;;11.71;90.45;100743.84;4934106;29;20023;-96
2023/03/12 14:49:49;;;;;;;25.35;4.57;;;;;;;11.65;91.61;100738.84;4947936;29;20118;-96
2023/03/12 14:52:24;;;;;;;28.92;5.30;;;;;;;11.83;92.97;100760.81;4933482;29;20033;-96
2023/03/12 14:55:05;;;;;;;23.60;4.60;;;;;;;11.72;93.01;100744.69;4962348;28;20035;-96
2023/03/12 14:57:35;;;;;;;22.73;4.78;;;;;;;11.67;91.38;100750.00;4936010;29;20031;-94
2023/03/12 15:00:17;;;;;;;20.08;4.50;;;;;;;11.67;91.04;100764.75;4944691;28;20039;-95
2023/03/12 15:02:45;;;;;;;23.25;4.43;;;;;;;11.44;88.41;100748.09;4928360;29;20034;-96
2023/03/12 15:05:56;;;;;;;26.05;4.93;;;;;;;11.39;92.51;100744.78;4955655;29;20027;-96
2023/03/12 15:09:24;;;;;;;25.88;4.78;;;;;;;11.39;91.34;100767.31;4935071;28;20023;-96
2023/03/12 15:12:17;;;;;;;25.88;4.97;;;;;;;11.38;91.35;100770.78;4947672;28;20059;-96
2023/03/12 15:18:31;;;;;;;26.17;4.40;;;;;;;11.43;91.49;100750.72;4929576;29;20040;-96
2023/03/12 15:21:23;;;;;;;22.45;4.07;;;;;;;11.38;89.97;100760.41;4880996;29;20044;-96
2023/03/12 15:23:56;;;;;;;23.92;4.25;;;;;;;11.32;88.95;100753.66;4905466;29;20047;-96
2023/03/12 15:29:26;;;;;;;22.92;4.38;;;;;;;11.33;89.67;100767.44;4939571;29;20287;-96
2023/03/12 15:31:58;;;;;;;23.45;4.13;;;;;;;11.21;90.17;100747.03;4927659;29;20027;-96
2023/03/12 15:40:54;;;;;;;26.75;4.90;;;;;;;11.17;92.18;100751.47;4933962;29;20035;-96
2023/03/12 15:43:50;;;;;;;27.55;4.43;;;;;;;11.05;90.19;100738.84;4944351;29;20065;-96
2023/03/12 15:46:19;;;;;;;22.00;4.30;;;;;;;10.97;90.18;100749.41;4932353;29;20037;-95
2023/03/12 15:49:13;;;;;;;24.33;4.50;;;;;;;10.97;91.03;100751.16;4925571;29;20035;-96
2023/03/12 15:51:39;;;;;;;23.50;4.25;;;;;;;10.96;90.40;100752.91;4934014;28;20440;-96
2023/03/12 15:54:41;;;;;;;24.35;4.10;;;;;;;10.97;90.52;100767.56;4942387;29;20032;-96
2023/03/12 15:57:56;;;;;;;27.45;4.15;;;;;;;10.81;91.78;100747.25;4942311;28;20039;-95
2023/03/12 16:00:37;;;;;;;;;;;;;;;;;;;;;
2023/03/12 16:03:23;;;;;;;19.58;4.25;;;;;;;10.67;92.56;100738.09;4941845;29;20024;-96
2023/03/12 16:05:51;;;;;;;23.73;4.03;;;;;;;10.66;94.15;100736.41;4924126;29;20035;-95
2023/03/12 16:08:20;;;;;;;28.00;4.40;;;;;;;10.64;94.99;100739.94;4924206;29;20039;-96
2023/03/12 16:10:52;;;;;;;21.40;3.80;;;;;;;10.71;94.45;100738.03;4927448;29;20033;-96
2023/03/12 16:13:36;;;;;;;21.65;4.60;;;;;;;10.66;94.53;100730.34;4939617;29;20035;-94
2023/03/12 16:16:08;;;;;;;25.05;4.53;;;;;;;10.68;94.18;100736.38;4942245;29;20050;-96
2023/03/12 16:19:03;;;;;;;20.95;4.13;;;;;;;10.64;95.02;100724.38;4940291;28;20035;-96
2023/03/12 16:21:33;;;;;;;29.38;5.25;;;;;;;10.64;95.03;100730.38;4923916;29;20024;-95
2023/03/12 16:24:21;;;;;;;23.77;4.63;;;;;;;10.61;94.27;100729.63;4942010;29;20086;-96
2023/03/12 16:26:58;;;;;;;23.92;4.53;;;;;;;10.68;93.64;100749.31;4926843;29;20043;-96
2023/03/12 16:29:51;;;;;;;26.80;4.85;;;;;;;10.59;94.30;100732.25;4943276;28;20058;-96
2023/03/12 16:32:17;;;;;;;27.48;4.85;;;;;;;10.57;93.22;100733.22;4931389;29;20039;-95
2023/03/12 16:34:50;;;;;;;22.35;4.78;;;;;;;10.50;94.07;100726.47;4937060;29;20042;-95
2023/03/12 16:37:31;;;;;;;;;;;;;;;;;;;;;
2023/03/12 16:40:00;;;;;;;28.10;5.20;;;;;;;10.50;93.63;100750.66;4949230;29;20027;-96
2023/03/12 16:42:26;;;;;;;23.67;4.63;;;;;;;10.39;93.78;100734.50;4943731;28;20051;-96
2023/03/12 16:44:59;;;;;;;21.95;3.70;;;;;;;10.33;93.14;100724.28;4945980;29;20032;-95
2023/03/12 16:47:51;;;;;;;24.63;4.47;;;;;;;10.28;94.09;100727.00;4927865;29;20039;-94
2023/03/12 16:50:21;;;;;;;22.15;4.30;;;;;;;10.22;93.37;100739.25;4933293;29;20185;-96
2023/03/12 16:53:04;;;;;;;27.40;4.45;;;;;;;10.23;93.16;100725.41;4927842;29;20047;-95
2023/03/12 16:56:10;;;;;;;21.20;4.22;;;;;;;10.17;94.50;100720.34;4934432;29;20024;-96
2023/03/12 16:58:48;;;;;;;20.48;4.38;;;;;;;10.10;93.67;100729.16;4932165;29;20062;-94
2023/03/12 17:01:16;;;;;;;23.60;4.47;;;;;;;10.07;93.38;100743.00;4949601;28;20715;-96
2023/03/12 17:07:16;;;;;;;22.02;4.22;;;;;;;9.97;92.96;100736.34;4935397;29;20427;-96
2023/03/12 17:09:49;;;;;;;20.58;4.40;;;;;;;10.00;92.51;100753.53;4941560;29;20126;-95
2023/03/12 17:15:58;;;;;;;22.38;4.35;;;;;;;9.95;93.43;100755.41;4910078;28;20083;-95
2023/03/12 17:18:24;;;;;;;28.85;5.10;;;;;;;9.97;93.11;100762.22;4931809;29;20031;-95
2023/03/12 17:20:50;;;;;;;24.88;5.10;;;;;;;9.85;93.69;100758.19;4931937;29;20039;-96
2023/03/12 17:23:21;;;;;;;20.73;4.20;;;;;;;9.76;93.59;100758.38;4926506;29;20384;-95
2023/03/12 17:26:01;;;;;;;22.30;4.57;;;;;;;9.76;93.14;100750.59;4941784;29;20110;-95
2023/03/12 17:31:58;;;;;;;21.40;4.85;;;;;;;9.75;94.39;100777.41;4936639;29;20526;-96
2023/03/12 17:34:26;;;;;;;24.52;4.78;;;;;;;9.67;94.00;100770.69;4932764;29;20034;-94
2023/03/12 17:37:01;;;;;;;28.83;4.75;;;;;;;9.65;95.19;100764.66;4946214;28;20038;-95
2023/03/12 17:39:30;;;;;;;24.63;4.32;;;;;;;9.67;95.23;100768.09;4928904;29;20023;-94
2023/03/12 17:41:55;;;;;;;21.73;4.53;;;;;;;9.66;95.33;100759.47;4926094;29;20093;-95
2023/03/12 17:44:33;;;;;;;25.40;3.83;;;;;;;9.75;95.46;100776.56;4945708;29;20626;-95
2023/03/12 17:47:16;;;;;;;23.67;4.18;;;;;;;9.65;95.87;100754.31;4950475;29;20034;-96
2023/03/12 17:49:44;;;;;;;21.83;4.00;;;;;;;9.63;96.23;100761.25;4936603;29;20039;-95
2023/03/12 17:52:15;;;;;;;22.90;3.90;;;;;;;9.64;96.01;100769.00;4932682;29;20118;-96
2023/03/12 17:54:40;;;;;;;27.58;4.05;;;;;;;9.66;96.29;100766.38;4951505;28;20554;-96
2023/03/12 17:57:21;;;;;;;23.65;3.70;;;;;;;9.61;95.69;100761.31;4931881;29;20492;-95
2023/03/12 18:00:22;;;;;;;22.05;4.10;;;;;;;9.65;96.67;100765.53;4946995;28;20039;-96